Time;durP1;ratioP1;P1;durP2;ratioP2;P2;SDS_P1;SDS_P2;PMS_P1;PMS_P2;Temp;Humidity;BMP_temperature;BMP_pressure;BME280_temperature;BME280_humidity;BME280_pressure;Samples;Min_cycle;Max_cycle;Signal;HPM_P1;HPM_P2
2024/03/30 00:08:52;;;;;;;11.77;9.13;;;7.70;90.00;;;;;;4732495;29;20222;-83
2024/03/30 00:29:06;;;;;;;13.53;9.07;;;8.60;87.50;;;;;;4581896;30;20251;-85
2024/03/30 00:54:40;;;;;;;11.80;9.10;;;8.80;87.50;;;;;;4545880;30;20223;-83
2024/03/30 01:20:05;;;;;;;12.87;9.03;;;8.70;87.80;;;;;;4623417;30;20243;-85
2024/03/30 01:24:23;;;;;;;13.07;9.17;;;8.70;87.90;;;;;;4659921;30;20723;-84
2024/03/30 01:44:41;;;;;;;12.67;9.47;;;8.50;89.20;;;;;;4660963;29;20229;-85
2024/03/30 02:05:01;;;;;;;12.67;9.30;;;8.10;90.40;;;;;;4571173;30;20466;-83
2024/03/30 02:25:40;;;;;;;12.93;9.23;;;8.00;92.00;;;;;;4562948;30;20291;-85
2024/03/30 03:01:22;;;;;;;14.10;8.27;;;8.70;91.30;;;;;;4726642;29;20246;-82
2024/03/30 03:37:01;;;;;;;10.90;8.03;;;8.70;91.70;;;;;;4779585;29;20231;-83
2024/03/30 04:17:20;;;;;;;14.17;7.70;;;8.80;92.30;;;;;;4804974;28;20431;-84
2024/03/30 04:37:25;;;;;;;12.27;7.90;;;8.10;93.40;;;;;;4624169;30;20390;-84
2024/03/30 05:03:00;;;;;;;11.43;7.27;;;8.00;97.30;;;;;;4676815;29;20311;-85
2024/03/30 05:28:14;;;;;;;9.73;7.50;;;7.70;97.80;;;;;;4663012;29;20304;-84
2024/03/30 05:58:56;;;;;;;11.43;6.30;;;9.90;94.90;;;;;;4683072;29;20208;-83
2024/03/30 06:24:20;;;;;;;8.67;6.30;;;11.90;89.50;;;;;;4722323;29;20274;-82
2024/03/30 06:44:05;;;;;;;6.33;5.73;;;12.90;87.80;;;;;;4766443;29;20690;-83
2024/03/30 07:09:53;;;;;;;7.17;4.80;;;14.40;85.70;;;;;;4650198;30;20463;-83
2024/03/30 07:30:19;;;;;;;8.60;3.63;;;16.00;84.00;;;;;;4670676;29;20323;-82
2024/03/30 08:15:39;;;;;;;12.20;4.07;;;17.50;81.20;;;;;;4688782;29;20289;-86
2024/03/30 08:41:11;;;;;;;7.90;3.40;;;17.80;80.30;;;;;;4553537;30;20310;-84
2024/03/30 09:11:37;;;;;;;7.70;3.30;;;19.10;78.50;;;;;;4657848;29;20203;-83
2024/03/30 09:32:00;;;;;;;7.28;3.15;;;19.20;78.20;;;;;;4716718;29;20396;-82
2024/03/30 09:51:57;;;;;;;8.48;3.70;;;19.90;77.00;;;;;;4603434;30;20208;-83
2024/03/30 10:16:57;;;;;;;10.27;3.25;;;19.90;75.40;;;;;;4550652;30;20735;-86
2024/03/30 10:32:33;;;;;;;7.22;2.60;;;20.20;73.50;;;;;;4520732;30;20323;-83
2024/03/30 11:23:08;;;;;;;7.72;2.95;;;20.70;70.90;;;;;;4569034;30;20254;-84
2024/03/30 11:48:17;;;;;;;10.38;3.60;;;21.10;69.20;;;;;;4794924;29;20291;-82
2024/03/30 12:08:44;;;;;;;10.48;3.42;;;21.20;71.40;;;;;;4705128;29;20494;-82
2024/03/30 12:54:51;;;;;;;10.07;2.38;;;22.20;66.00;;;;;;4620318;30;20208;-83
2024/03/30 13:19:39;;;;;;;8.15;2.92;;;23.30;63.60;;;;;;4644985;29;21391;-86
2024/03/30 13:45:25;;;;;;;5.63;2.53;;;23.80;62.90;;;;;;4578540;30;20225;-82
2024/03/30 14:05:35;;;;;;;5.43;2.33;;;24.00;62.00;;;;;;4560195;30;20513;-81
2024/03/30 14:35:54;;;;;;;9.88;3.33;;;24.00;62.00;;;;;;4662643;29;20456;-83
2024/03/30 14:51:24;;;;;;;8.45;2.83;;;24.10;60.70;;;;;;4624434;30;20258;-84
2024/03/30 15:11:47;;;;;;;11.40;3.30;;;23.00;58.80;;;;;;4681917;29;20204;-84
2024/03/30 15:46:35;;;;;;;12.13;2.60;;;22.50;59.50;;;;;;4751977;29;20634;-83
2024/03/30 16:12:35;;;;;;;12.23;3.80;;;22.00;60.00;;;;;;4640570;30;20241;-82
2024/03/30 16:47:30;;;;;;;12.23;3.95;;;20.50;61.90;;;;;;4465645;30;20553;-82
2024/03/30 17:12:49;;;;;;;18.45;5.20;;;18.90;64.40;;;;;;4538078;30;20708;-84
2024/03/30 17:43:52;;;;;;;19.60;5.37;;;18.10;68.40;;;;;;4776645;29;20320;-84
2024/03/30 18:09:03;;;;;;;27.10;6.67;;;17.70;71.90;;;;;;4597810;30;20312;-83
2024/03/30 18:34:29;;;;;;;28.27;8.30;;;17.30;75.10;;;;;;4525179;30;20556;-83
2024/03/30 18:54:38;;;;;;;28.17;9.10;;;17.00;76.30;;;;;;4471650;30;20296;-84
2024/03/30 19:20:15;;;;;;;32.53;8.97;;;16.10;79.00;;;;;;4502426;30;20355;-82
2024/03/30 19:45:40;;;;;;;26.53;10.10;;;15.80;80.80;;;;;;4678871;29;20355;-84
2024/03/30 20:16:02;;;;;;;33.60;11.67;;;14.40;83.60;;;;;;4622737;30;20812;-85
2024/03/30 20:41:06;;;;;;;31.00;11.80;;;13.70;86.60;;;;;;4612709;30;20714;-84
2024/03/30 21:01:20;;;;;;;35.97;11.37;;;13.00;87.40;;;;;;4611935;30;21180;-82
2024/03/30 21:21:46;;;;;;;38.77;12.20;;;12.70;90.00;;;;;;4511665;30;20291;-84
2024/03/30 22:07:25;;;;;;;40.67;11.93;;;13.60;86.70;;;;;;4462425;31;20234;-84
2024/03/30 22:32:49;;;;;;;38.87;11.20;;;13.90;84.70;;;;;;4626191;30;20728;-83
2024/03/30 23:03:26;;;;;;;42.53;11.13;;;14.50;82.80;;;;;;4761758;29;20714;-83
2024/03/30 23:23:47;;;;;;;36.70;10.63;;;14.30;82.30;;;;;;4787973;29;20258;-84
2024/03/30 23:43:52;;;;;;;36.17;11.40;;;13.50;82.90;;;;;;4614068;30;20232;-83
